Главная страница
METAR-TAF:

METAR-TAF

Аэропорты :

Кано, Нигерия

широта: 12-03N, долгота: 008-32E, высота над уровнем моря: 476 м

Текущие метеонаблюдения

Эта сводка был подготовлена 1 час и 9 минут назад, в 02:00 UTC
Ветер 13 Узел от юго-западный
Температура 28°C
Влажность 70%
Давление 1012 hPa
Видимость 10 км и более
небольшая облачность на высоте 1100 фута
небольшая облачность на высоте 2000 фута, Кучево-дождевые.
гроза,

METAR: DNKN 240200Z 23013KT 9999 TS FEW011 FEW020CB 28/22 Q1012 NOSIG

Время: 04:09 (03:09 UTC)

Прогноз

Эта сводка был подготовлена 4 часа и 9 минут назад, в 23:00 UTC
Прогноз действительный с 24-го 00 UTC до 25-го 06 UTC
Ветер 10 Узел от юго-западный
Видимость 10 км и более
небольшая облачность на высоте 1300 фута
временами
С 24-го 02 UTC до 24-го 08 UTC
Видимость: 5000 м
Рассеянная облачность на высоте 1000 фута
небольшая облачность на высоте 1800 фута, Кучево-дождевые.
гроза, дождь,

TAF: DNKN 232300Z 2400/2506 23010KT 9999 FEW013 TEMPO 2402/2408 5000 TSRA BKN010 FEW018CB

Метеонаблюдения и прогнозы для более 4000 аэропортов (сводки METAR и TAF).

Имеющиеся станции представлены на карте желтыми и красными точками.

Чтобы увидеть название станции, наведите на нее мышь.

Затем щелкните, чтобы увидеть метеонаблюдения и метеопрогнозы.

Управление картой: чтобы увеличить масштаб, щелкните зеленые кнопки с черным крестиком; чтобы уменьшить масштаб, щелкните зеленую кнопку с тире; для просмотра соседних карт щелкайте зеленые стрелки.


METAR-TAF: